sensor_id;sensor_type;location;lat;lon;timestamp;P1;durP1;ratioP1;P2;durP2;ratioP2
44446;SDS011;30152;52.066;5.358;2022-11-06T08:40:14;12.32;;;2.60;;
44446;SDS011;30152;52.066;5.358;2022-11-06T08:42:39;11.05;;;2.38;;
44446;SDS011;30152;52.066;5.358;2022-11-06T08:45:05;9.68;;;2.10;;
44446;SDS011;30152;52.066;5.358;2022-11-06T08:47:31;12.25;;;2.65;;
44446;SDS011;30152;52.066;5.358;2022-11-06T08:49:58;10.82;;;2.60;;
44446;SDS011;30152;52.066;5.358;2022-11-06T08:52:24;8.57;;;2.03;;
44446;SDS011;30152;52.066;5.358;2022-11-06T08:54:50;13.05;;;2.42;;
44446;SDS011;30152;52.066;5.358;2022-11-06T08:57:15;12.35;;;2.60;;
44446;SDS011;30152;52.066;5.358;2022-11-06T08:59:42;8.13;;;2.10;;
44446;SDS011;30152;52.066;5.358;2022-11-06T09:02:13;8.75;;;2.17;;
44446;SDS011;30152;52.066;5.358;2022-11-06T09:04:39;10.55;;;2.65;;
44446;SDS011;30152;52.066;5.358;2022-11-06T09:07:05;8.07;;;1.92;;
44446;SDS011;30152;52.066;5.358;2022-11-06T09:09:31;11.93;;;2.58;;
44446;SDS011;30152;52.066;5.358;2022-11-06T09:11:58;11.05;;;2.13;;
44446;SDS011;30152;52.066;5.358;2022-11-06T09:14:25;8.40;;;2.65;;
44446;SDS011;30152;52.066;5.358;2022-11-06T09:16:53;7.10;;;2.10;;
44446;SDS011;30152;52.066;5.358;2022-11-06T09:19:19;9.93;;;2.05;;
44446;SDS011;30152;52.066;5.358;2022-11-06T09:21:45;11.00;;;2.30;;
44446;SDS011;30152;52.066;5.358;2022-11-06T09:24:11;8.00;;;1.98;;
44446;SDS011;30152;52.066;5.358;2022-11-06T09:26:37;6.28;;;2.10;;
44446;SDS011;30152;52.066;5.358;2022-11-06T09:29:03;9.65;;;2.08;;
44446;SDS011;30152;52.066;5.358;2022-11-06T09:31:29;9.18;;;2.88;;
44446;SDS011;30152;52.066;5.358;2022-11-06T09:33:55;7.32;;;2.17;;
44446;SDS011;30152;52.066;5.358;2022-11-06T09:36:20;7.53;;;1.83;;
44446;SDS011;30152;52.066;5.358;2022-11-06T09:38:46;9.50;;;2.25;;
44446;SDS011;30152;52.066;5.358;2022-11-06T09:41:22;8.40;;;2.08;;
44446;SDS011;30152;52.066;5.358;2022-11-06T09:46:50;11.18;;;2.15;;
44446;SDS011;30152;52.066;5.358;2022-11-06T09:49:25;13.27;;;1.95;;
44446;SDS011;30152;52.066;5.358;2022-11-06T09:51:57;12.30;;;2.17;;
44446;SDS011;30152;52.066;5.358;2022-11-06T09:54:34;9.82;;;1.88;;
44446;SDS011;30152;52.066;5.358;2022-11-06T09:59:41;12.05;;;1.90;;
44446;SDS011;30152;52.066;5.358;2022-11-06T10:02:22;7.47;;;1.70;;
44446;SDS011;30152;52.066;5.358;2022-11-06T10:07:27;8.73;;;1.30;;
44446;SDS011;30152;52.066;5.358;2022-11-06T10:09:55;5.97;;;1.48;;
44446;SDS011;30152;52.066;5.358;2022-11-06T10:12:31;7.72;;;2.38;;
44446;SDS011;30152;52.066;5.358;2022-11-06T10:37:38;8.23;;;1.42;;
44446;SDS011;30152;52.066;5.358;2022-11-06T10:40:16;8.88;;;1.13;;
44446;SDS011;30152;52.066;5.358;2022-11-06T10:42:43;6.05;;;1.70;;
44446;SDS011;30152;52.066;5.358;2022-11-06T10:45:14;7.38;;;1.30;;
44446;SDS011;30152;52.066;5.358;2022-11-06T10:47:58;9.23;;;1.67;;
44446;SDS011;30152;52.066;5.358;2022-11-06T10:51:50;9.80;;;1.70;;
44446;SDS011;30152;52.066;5.358;2022-11-06T10:56:29;8.73;;;1.83;;
44446;SDS011;30152;52.066;5.358;2022-11-06T10:59:00;10.07;;;1.80;;
44446;SDS011;30152;52.066;5.358;2022-11-06T11:01:27;7.85;;;1.98;;
44446;SDS011;30152;52.066;5.358;2022-11-06T11:03:53;10.68;;;1.98;;
44446;SDS011;30152;52.066;5.358;2022-11-06T11:06:18;10.57;;;2.05;;
44446;SDS011;30152;52.066;5.358;2022-11-06T11:08:48;9.77;;;1.90;;
44446;SDS011;30152;52.066;5.358;2022-11-06T11:11:19;8.30;;;1.70;;
44446;SDS011;30152;52.066;5.358;2022-11-06T11:16:34;8.25;;;1.58;;
44446;SDS011;30152;52.066;5.358;2022-11-06T11:19:23;7.93;;;1.95;;
44446;SDS011;30152;52.066;5.358;2022-11-06T11:21:58;8.05;;;2.22;;
44446;SDS011;30152;52.066;5.358;2022-11-06T11:24:25;7.95;;;1.80;;
44446;SDS011;30152;52.066;5.358;2022-11-06T11:26:52;10.00;;;1.80;;
44446;SDS011;30152;52.066;5.358;2022-11-06T11:29:25;7.90;;;1.85;;
44446;SDS011;30152;52.066;5.358;2022-11-06T11:31:55;11.90;;;2.10;;
44446;SDS011;30152;52.066;5.358;2022-11-06T11:34:25;7.45;;;1.40;;
44446;SDS011;30152;52.066;5.358;2022-11-06T11:37:06;10.30;;;2.13;;
44446;SDS011;30152;52.066;5.358;2022-11-06T11:39:44;5.35;;;1.40;;
44446;SDS011;30152;52.066;5.358;2022-11-06T11:42:21;9.70;;;2.17;;
44446;SDS011;30152;52.066;5.358;2022-11-06T11:45:05;7.60;;;1.60;;
44446;SDS011;30152;52.066;5.358;2022-11-06T11:47:37;12.25;;;2.13;;
44446;SDS011;30152;52.066;5.358;2022-11-06T11:52:55;8.25;;;1.65;;
44446;SDS011;30152;52.066;5.358;2022-11-06T11:55:27;7.25;;;1.70;;
44446;SDS011;30152;52.066;5.358;2022-11-06T11:57:55;7.40;;;1.63;;
44446;SDS011;30152;52.066;5.358;2022-11-06T12:00:23;8.30;;;1.58;;
44446;SDS011;30152;52.066;5.358;2022-11-06T12:02:57;8.70;;;1.80;;
44446;SDS011;30152;52.066;5.358;2022-11-06T12:05:37;8.18;;;1.25;;
44446;SDS011;30152;52.066;5.358;2022-11-06T12:10:34;7.97;;;1.80;;
44446;SDS011;30152;52.066;5.358;2022-11-06T12:13:03;6.43;;;1.40;;
44446;SDS011;30152;52.066;5.358;2022-11-06T12:15:43;10.90;;;2.05;;
44446;SDS011;30152;52.066;5.358;2022-11-06T12:21:01;10.45;;;1.40;;
44446;SDS011;30152;52.066;5.358;2022-11-06T12:23:36;9.15;;;1.75;;
44446;SDS011;30152;52.066;5.358;2022-11-06T12:26:31;10.25;;;1.50;;
44446;SDS011;30152;52.066;5.358;2022-11-06T12:29:13;7.57;;;1.60;;
44446;SDS011;30152;52.066;5.358;2022-11-06T12:31:52;13.48;;;2.30;;
44446;SDS011;30152;52.066;5.358;2022-11-06T12:35:02;12.38;;;1.92;;
44446;SDS011;30152;52.066;5.358;2022-11-06T12:37:43;6.25;;;1.38;;
44446;SDS011;30152;52.066;5.358;2022-11-06T12:40:31;8.20;;;1.50;;
44446;SDS011;30152;52.066;5.358;2022-11-06T12:43:04;7.25;;;1.33;;
44446;SDS011;30152;52.066;5.358;2022-11-06T12:46:06;7.88;;;1.85;;
44446;SDS011;30152;52.066;5.358;2022-11-06T13:04:54;9.80;;;1.40;;
44446;SDS011;30152;52.066;5.358;2022-11-06T13:15:48;8.23;;;1.67;;
44446;SDS011;30152;52.066;5.358;2022-11-06T13:19:09;9.68;;;1.77;;
44446;SDS011;30152;52.066;5.358;2022-11-06T13:24:14;9.02;;;2.10;;
44446;SDS011;30152;52.066;5.358;2022-11-06T13:26:46;8.37;;;1.70;;
44446;SDS011;30152;52.066;5.358;2022-11-06T13:29:17;8.70;;;2.10;;
44446;SDS011;30152;52.066;5.358;2022-11-06T13:31:46;11.10;;;1.85;;
44446;SDS011;30152;52.066;5.358;2022-11-06T13:34:20;8.30;;;1.77;;
44446;SDS011;30152;52.066;5.358;2022-11-06T13:37:19;10.10;;;1.92;;
44446;SDS011;30152;52.066;5.358;2022-11-06T13:40:14;11.05;;;2.17;;
44446;SDS011;30152;52.066;5.358;2022-11-06T13:43:04;6.47;;;1.77;;
44446;SDS011;30152;52.066;5.358;2022-11-06T13:45:51;10.23;;;1.95;;
44446;SDS011;30152;52.066;5.358;2022-11-06T13:48:28;8.93;;;1.65;;
44446;SDS011;30152;52.066;5.358;2022-11-06T13:51:45;7.53;;;1.35;;
44446;SDS011;30152;52.066;5.358;2022-11-06T13:53:54;10.75;;;1.70;;
44446;SDS011;30152;52.066;5.358;2022-11-06T14:01:41;11.77;;;2.30;;
44446;SDS011;30152;52.066;5.358;2022-11-06T14:07:13;14.65;;;2.17;;
44446;SDS011;30152;52.066;5.358;2022-11-06T14:09:42;9.77;;;2.15;;
44446;SDS011;30152;52.066;5.358;2022-11-06T14:12:19;15.10;;;2.17;;
44446;SDS011;30152;52.066;5.358;2022-11-06T14:14:46;9.98;;;2.10;;
44446;SDS011;30152;52.066;5.358;2022-11-06T14:19:58;8.23;;;1.90;;
44446;SDS011;30152;52.066;5.358;2022-11-06T14:22:50;12.13;;;2.30;;
44446;SDS011;30152;52.066;5.358;2022-11-06T14:28:05;15.10;;;3.10;;
44446;SDS011;30152;52.066;5.358;2022-11-06T14:32:58;10.80;;;2.03;;
44446;SDS011;30152;52.066;5.358;2022-11-06T14:40:54;11.05;;;2.42;;
44446;SDS011;30152;52.066;5.358;2022-11-06T14:43:30;6.43;;;1.73;;
44446;SDS011;30152;52.066;5.358;2022-11-06T14:46:15;6.63;;;2.20;;
44446;SDS011;30152;52.066;5.358;2022-11-06T14:48:45;10.60;;;2.67;;
44446;SDS011;30152;52.066;5.358;2022-11-06T14:51:13;9.27;;;2.38;;
44446;SDS011;30152;52.066;5.358;2022-11-06T14:54:41;10.40;;;2.80;;
44446;SDS011;30152;52.066;5.358;2022-11-06T14:56:43;5.30;;;1.90;;
44446;SDS011;30152;52.066;5.358;2022-11-06T14:59:31;12.05;;;2.05;;
44446;SDS011;30152;52.066;5.358;2022-11-06T15:02:11;11.60;;;2.45;;
44446;SDS011;30152;52.066;5.358;2022-11-06T15:04:43;14.70;;;2.22;;
44446;SDS011;30152;52.066;5.358;2022-11-06T15:07:27;10.13;;;2.17;;
44446;SDS011;30152;52.066;5.358;2022-11-06T15:09:56;8.60;;;2.72;;
44446;SDS011;30152;52.066;5.358;2022-11-06T15:15:34;9.95;;;2.63;;
44446;SDS011;30152;52.066;5.358;2022-11-06T15:18:01;12.82;;;2.60;;
44446;SDS011;30152;52.066;5.358;2022-11-06T15:20:29;7.90;;;2.40;;
44446;SDS011;30152;52.066;5.358;2022-11-06T15:23:03;11.95;;;2.72;;
44446;SDS011;30152;52.066;5.358;2022-11-06T15:25:34;11.52;;;2.10;;
44446;SDS011;30152;52.066;5.358;2022-11-06T15:28:18;9.50;;;2.42;;
44446;SDS011;30152;52.066;5.358;2022-11-06T15:30:58;11.70;;;2.25;;
44446;SDS011;30152;52.066;5.358;2022-11-06T15:33:31;11.13;;;2.05;;
44446;SDS011;30152;52.066;5.358;2022-11-06T15:36:04;9.80;;;2.90;;
44446;SDS011;30152;52.066;5.358;2022-11-06T15:38:38;10.82;;;2.45;;
44446;SDS011;30152;52.066;5.358;2022-11-06T15:41:06;6.90;;;2.60;;
44446;SDS011;30152;52.066;5.358;2022-11-06T15:43:44;10.85;;;2.85;;
44446;SDS011;30152;52.066;5.358;2022-11-06T15:46:15;5.15;;;1.85;;
44446;SDS011;30152;52.066;5.358;2022-11-06T15:49:34;5.93;;;1.80;;
44446;SDS011;30152;52.066;5.358;2022-11-06T15:51:48;8.05;;;2.75;;
44446;SDS011;30152;52.066;5.358;2022-11-06T15:57:01;13.77;;;2.50;;
44446;SDS011;30152;52.066;5.358;2022-11-06T15:59:47;7.22;;;1.67;;
44446;SDS011;30152;52.066;5.358;2022-11-06T16:02:14;7.53;;;2.03;;
44446;SDS011;30152;52.066;5.358;2022-11-06T16:04:42;7.63;;;1.85;;
44446;SDS011;30152;52.066;5.358;2022-11-06T16:07:08;9.88;;;2.15;;
44446;SDS011;30152;52.066;5.358;2022-11-06T16:09:34;8.35;;;1.85;;
44446;SDS011;30152;52.066;5.358;2022-11-06T16:12:00;9.20;;;2.13;;
44446;SDS011;30152;52.066;5.358;2022-11-06T16:14:26;7.55;;;2.45;;
44446;SDS011;30152;52.066;5.358;2022-11-06T16:16:53;11.23;;;2.80;;
44446;SDS011;30152;52.066;5.358;2022-11-06T16:19:54;10.57;;;3.10;;
44446;SDS011;30152;52.066;5.358;2022-11-06T16:22:14;8.15;;;3.00;;
44446;SDS011;30152;52.066;5.358;2022-11-06T16:27:43;8.02;;;2.28;;
44446;SDS011;30152;52.066;5.358;2022-11-06T16:30:20;10.55;;;2.13;;
44446;SDS011;30152;52.066;5.358;2022-11-06T16:32:46;11.27;;;2.67;;
44446;SDS011;30152;52.066;5.358;2022-11-06T16:35:28;8.93;;;2.78;;
44446;SDS011;30152;52.066;5.358;2022-11-06T16:37:55;10.18;;;2.90;;
44446;SDS011;30152;52.066;5.358;2022-11-06T16:43:21;6.75;;;2.28;;
44446;SDS011;30152;52.066;5.358;2022-11-06T16:45:58;8.60;;;2.55;;
44446;SDS011;30152;52.066;5.358;2022-11-06T16:48:33;10.20;;;3.45;;
44446;SDS011;30152;52.066;5.358;2022-11-06T16:51:01;6.93;;;2.00;;
44446;SDS011;30152;52.066;5.358;2022-11-06T16:53:32;5.47;;;2.42;;
44446;SDS011;30152;52.066;5.358;2022-11-06T16:56:10;6.82;;;2.42;;
44446;SDS011;30152;52.066;5.358;2022-11-06T16:58:46;6.22;;;2.45;;
44446;SDS011;30152;52.066;5.358;2022-11-06T17:01:15;5.40;;;2.30;;
44446;SDS011;30152;52.066;5.358;2022-11-06T17:03:53;9.05;;;2.33;;
44446;SDS011;30152;52.066;5.358;2022-11-06T17:06:24;10.88;;;2.58;;
44446;SDS011;30152;52.066;5.358;2022-11-06T17:08:55;6.68;;;2.70;;
44446;SDS011;30152;52.066;5.358;2022-11-06T17:11:29;5.90;;;2.83;;
44446;SDS011;30152;52.066;5.358;2022-11-06T17:13:55;8.40;;;2.33;;
44446;SDS011;30152;52.066;5.358;2022-11-06T17:16:22;5.70;;;2.20;;
44446;SDS011;30152;52.066;5.358;2022-11-06T17:18:49;10.75;;;2.35;;
44446;SDS011;30152;52.066;5.358;2022-11-06T17:21:17;7.32;;;2.10;;
44446;SDS011;30152;52.066;5.358;2022-11-06T17:23:50;5.70;;;2.20;;
44446;SDS011;30152;52.066;5.358;2022-11-06T17:26:23;8.00;;;2.13;;
44446;SDS011;30152;52.066;5.358;2022-11-06T17:28:52;6.35;;;2.35;;
44446;SDS011;30152;52.066;5.358;2022-11-06T17:31:19;8.85;;;2.53;;
44446;SDS011;30152;52.066;5.358;2022-11-06T17:33:46;8.00;;;2.42;;
44446;SDS011;30152;52.066;5.358;2022-11-06T17:36:22;6.97;;;2.95;;
44446;SDS011;30152;52.066;5.358;2022-11-06T17:38:49;9.77;;;2.92;;
44446;SDS011;30152;52.066;5.358;2022-11-06T17:41:15;6.28;;;2.80;;
44446;SDS011;30152;52.066;5.358;2022-11-06T17:43:55;7.72;;;2.92;;
44446;SDS011;30152;52.066;5.358;2022-11-06T17:46:26;7.80;;;2.65;;
44446;SDS011;30152;52.066;5.358;2022-11-06T17:48:54;7.25;;;3.08;;
44446;SDS011;30152;52.066;5.358;2022-11-06T17:51:20;8.57;;;2.55;;
44446;SDS011;30152;52.066;5.358;2022-11-06T17:54:05;8.95;;;2.55;;
44446;SDS011;30152;52.066;5.358;2022-11-06T17:56:32;8.65;;;3.25;;
44446;SDS011;30152;52.066;5.358;2022-11-06T17:58:58;6.97;;;2.60;;
44446;SDS011;30152;52.066;5.358;2022-11-06T18:01:23;6.38;;;2.40;;
44446;SDS011;30152;52.066;5.358;2022-11-06T18:03:51;5.20;;;2.45;;
44446;SDS011;30152;52.066;5.358;2022-11-06T18:06:17;8.10;;;2.60;;
44446;SDS011;30152;52.066;5.358;2022-11-06T18:08:44;6.43;;;3.00;;
44446;SDS011;30152;52.066;5.358;2022-11-06T18:11:10;6.15;;;2.60;;
44446;SDS011;30152;52.066;5.358;2022-11-06T18:13:36;10.27;;;2.70;;
44446;SDS011;30152;52.066;5.358;2022-11-06T18:16:02;7.93;;;2.65;;
44446;SDS011;30152;52.066;5.358;2022-11-06T18:18:38;7.18;;;2.97;;
44446;SDS011;30152;52.066;5.358;2022-11-06T18:21:04;6.43;;;2.92;;
44446;SDS011;30152;52.066;5.358;2022-11-06T18:23:30;7.82;;;2.88;;
44446;SDS011;30152;52.066;5.358;2022-11-06T18:25:56;9.02;;;3.65;;
44446;SDS011;30152;52.066;5.358;2022-11-06T18:28:23;5.55;;;2.90;;
44446;SDS011;30152;52.066;5.358;2022-11-06T18:30:49;9.30;;;3.50;;
44446;SDS011;30152;52.066;5.358;2022-11-06T18:33:15;8.23;;;2.90;;
44446;SDS011;30152;52.066;5.358;2022-11-06T18:35:41;7.45;;;2.83;;
44446;SDS011;30152;52.066;5.358;2022-11-06T18:38:07;8.00;;;4.55;;
44446;SDS011;30152;52.066;5.358;2022-11-06T18:40:36;7.43;;;3.35;;
44446;SDS011;30152;52.066;5.358;2022-11-06T18:43:02;8.80;;;3.22;;
44446;SDS011;30152;52.066;5.358;2022-11-06T18:45:30;7.43;;;3.17;;
44446;SDS011;30152;52.066;5.358;2022-11-06T18:47:56;9.85;;;3.40;;
44446;SDS011;30152;52.066;5.358;2022-11-06T18:50:22;10.25;;;3.88;;
44446;SDS011;30152;52.066;5.358;2022-11-06T18:52:48;8.52;;;4.20;;
44446;SDS011;30152;52.066;5.358;2022-11-06T18:55:14;10.50;;;4.20;;
44446;SDS011;30152;52.066;5.358;2022-11-06T18:57:40;9.10;;;3.55;;
44446;SDS011;30152;52.066;5.358;2022-11-06T19:00:06;10.20;;;4.07;;
44446;SDS011;30152;52.066;5.358;2022-11-06T19:02:32;11.07;;;4.53;;
44446;SDS011;30152;52.066;5.358;2022-11-06T19:04:58;7.95;;;3.50;;
44446;SDS011;30152;52.066;5.358;2022-11-06T19:07:24;13.00;;;4.20;;
44446;SDS011;30152;52.066;5.358;2022-11-06T19:09:51;9.75;;;4.10;;
44446;SDS011;30152;52.066;5.358;2022-11-06T19:12:17;8.63;;;4.32;;
44446;SDS011;30152;52.066;5.358;2022-11-06T19:14:43;8.32;;;4.22;;
44446;SDS011;30152;52.066;5.358;2022-11-06T19:17:09;9.52;;;4.78;;
44446;SDS011;30152;52.066;5.358;2022-11-06T19:19:35;8.00;;;4.40;;
44446;SDS011;30152;52.066;5.358;2022-11-06T19:22:01;10.23;;;4.68;;
44446;SDS011;30152;52.066;5.358;2022-11-06T19:24:27;10.68;;;5.00;;
44446;SDS011;30152;52.066;5.358;2022-11-06T19:26:52;11.48;;;5.00;;
44446;SDS011;30152;52.066;5.358;2022-11-06T19:29:19;13.00;;;5.72;;
44446;SDS011;30152;52.066;5.358;2022-11-06T19:31:45;11.50;;;6.03;;
44446;SDS011;30152;52.066;5.358;2022-11-06T19:34:11;13.45;;;5.95;;
44446;SDS011;30152;52.066;5.358;2022-11-06T19:36:38;11.73;;;6.53;;
44446;SDS011;30152;52.066;5.358;2022-11-06T19:39:04;16.15;;;7.30;;
44446;SDS011;30152;52.066;5.358;2022-11-06T19:41:32;10.02;;;6.63;;
44446;SDS011;30152;52.066;5.358;2022-11-06T19:43:57;13.82;;;7.00;;
44446;SDS011;30152;52.066;5.358;2022-11-06T19:46:23;14.70;;;7.28;;
44446;SDS011;30152;52.066;5.358;2022-11-06T19:48:49;14.93;;;7.35;;
44446;SDS011;30152;52.066;5.358;2022-11-06T19:51:17;15.40;;;7.80;;
44446;SDS011;30152;52.066;5.358;2022-11-06T19:53:42;14.60;;;7.60;;
44446;SDS011;30152;52.066;5.358;2022-11-06T19:56:09;13.75;;;8.13;;
44446;SDS011;30152;52.066;5.358;2022-11-06T19:58:36;13.18;;;7.68;;
44446;SDS011;30152;52.066;5.358;2022-11-06T20:01:05;14.85;;;8.80;;
44446;SDS011;30152;52.066;5.358;2022-11-06T20:03:31;12.80;;;8.32;;
44446;SDS011;30152;52.066;5.358;2022-11-06T20:05:57;14.68;;;8.65;;
44446;SDS011;30152;52.066;5.358;2022-11-06T20:08:23;16.67;;;8.98;;
44446;SDS011;30152;52.066;5.358;2022-11-06T20:10:49;14.45;;;9.35;;
44446;SDS011;30152;52.066;5.358;2022-11-06T20:13:15;13.23;;;8.80;;
44446;SDS011;30152;52.066;5.358;2022-11-06T20:15:41;15.77;;;9.02;;
44446;SDS011;30152;52.066;5.358;2022-11-06T20:18:06;13.10;;;8.60;;
44446;SDS011;30152;52.066;5.358;2022-11-06T20:20:33;15.07;;;8.57;;
44446;SDS011;30152;52.066;5.358;2022-11-06T20:22:59;17.10;;;9.63;;
44446;SDS011;30152;52.066;5.358;2022-11-06T20:25:25;16.73;;;9.15;;
44446;SDS011;30152;52.066;5.358;2022-11-06T20:27:51;15.20;;;9.13;;
44446;SDS011;30152;52.066;5.358;2022-11-06T20:30:16;12.80;;;8.02;;
44446;SDS011;30152;52.066;5.358;2022-11-06T20:32:42;12.43;;;8.52;;
44446;SDS011;30152;52.066;5.358;2022-11-06T20:35:09;15.27;;;8.38;;
44446;SDS011;30152;52.066;5.358;2022-11-06T20:37:35;15.10;;;8.48;;
44446;SDS011;30152;52.066;5.358;2022-11-06T20:40:02;12.57;;;8.32;;
44446;SDS011;30152;52.066;5.358;2022-11-06T20:42:28;13.95;;;8.43;;
44446;SDS011;30152;52.066;5.358;2022-11-06T20:44:54;12.35;;;7.65;;
44446;SDS011;30152;52.066;5.358;2022-11-06T20:47:20;13.40;;;7.88;;
44446;SDS011;30152;52.066;5.358;2022-11-06T20:49:46;13.52;;;8.05;;
44446;SDS011;30152;52.066;5.358;2022-11-06T20:52:13;12.88;;;7.95;;
44446;SDS011;30152;52.066;5.358;2022-11-06T20:54:39;13.18;;;8.23;;
44446;SDS011;30152;52.066;5.358;2022-11-06T20:57:05;14.77;;;7.88;;
44446;SDS011;30152;52.066;5.358;2022-11-06T20:59:31;12.73;;;7.85;;
44446;SDS011;30152;52.066;5.358;2022-11-06T21:01:57;15.15;;;7.60;;
44446;SDS011;30152;52.066;5.358;2022-11-06T21:04:23;16.52;;;8.63;;
44446;SDS011;30152;52.066;5.358;2022-11-06T21:06:49;12.68;;;8.07;;
44446;SDS011;30152;52.066;5.358;2022-11-06T21:09:15;10.88;;;7.63;;
44446;SDS011;30152;52.066;5.358;2022-11-06T21:11:42;11.57;;;7.93;;
44446;SDS011;30152;52.066;5.358;2022-11-06T21:14:08;13.23;;;7.72;;
44446;SDS011;30152;52.066;5.358;2022-11-06T21:16:34;13.88;;;7.43;;
44446;SDS011;30152;52.066;5.358;2022-11-06T21:19:01;13.93;;;7.40;;
44446;SDS011;30152;52.066;5.358;2022-11-06T21:21:30;15.40;;;7.65;;
44446;SDS011;30152;52.066;5.358;2022-11-06T21:24:00;12.73;;;7.18;;
44446;SDS011;30152;52.066;5.358;2022-11-06T21:26:29;12.70;;;6.78;;
44446;SDS011;30152;52.066;5.358;2022-11-06T21:29:02;14.27;;;6.60;;
44446;SDS011;30152;52.066;5.358;2022-11-06T21:31:29;11.95;;;6.45;;
44446;SDS011;30152;52.066;5.358;2022-11-06T21:33:56;10.07;;;6.30;;
44446;SDS011;30152;52.066;5.358;2022-11-06T21:36:24;11.80;;;6.40;;
44446;SDS011;30152;52.066;5.358;2022-11-06T21:38:56;14.07;;;6.50;;
44446;SDS011;30152;52.066;5.358;2022-11-06T21:41:27;11.55;;;6.57;;
44446;SDS011;30152;52.066;5.358;2022-11-06T21:43:54;12.95;;;6.85;;
44446;SDS011;30152;52.066;5.358;2022-11-06T21:46:22;13.07;;;6.95;;
44446;SDS011;30152;52.066;5.358;2022-11-06T21:48:47;13.50;;;6.30;;
44446;SDS011;30152;52.066;5.358;2022-11-06T21:51:16;11.60;;;5.85;;
44446;SDS011;30152;52.066;5.358;2022-11-06T21:53:44;13.40;;;6.20;;
44446;SDS011;30152;52.066;5.358;2022-11-06T21:56:29;10.60;;;5.95;;
44446;SDS011;30152;52.066;5.358;2022-11-06T21:58:56;13.35;;;5.68;;
44446;SDS011;30152;52.066;5.358;2022-11-06T22:01:23;12.60;;;5.93;;
44446;SDS011;30152;52.066;5.358;2022-11-06T22:03:49;13.65;;;6.70;;
44446;SDS011;30152;52.066;5.358;2022-11-06T22:06:18;10.77;;;5.50;;
44446;SDS011;30152;52.066;5.358;2022-11-06T22:08:46;13.43;;;5.68;;
